createdAt,value
2018-08-03T00:01:11.909Z,21.80
2018-08-03T00:03:47.276Z,21.80
2018-08-03T00:06:22.876Z,21.90
2018-08-03T00:08:58.143Z,21.80
2018-08-03T00:11:33.639Z,21.80
2018-08-03T00:14:08.996Z,21.80
2018-08-03T00:16:44.548Z,21.80
2018-08-03T00:19:20.204Z,21.80
2018-08-03T00:21:55.984Z,21.70
2018-08-03T00:24:31.280Z,21.70
2018-08-03T00:27:06.948Z,21.70
2018-08-03T00:29:42.576Z,21.60
2018-08-03T00:32:18.157Z,21.60
2018-08-03T00:34:53.573Z,21.60
2018-08-03T00:37:29.032Z,21.50
2018-08-03T00:40:05.360Z,21.50
2018-08-03T00:42:41.061Z,21.50
2018-08-03T00:45:16.509Z,21.40
2018-08-03T00:47:52.728Z,21.40
2018-08-03T00:50:28.060Z,21.40
2018-08-03T00:53:03.572Z,21.30
2018-08-03T00:55:38.762Z,21.40
2018-08-03T00:58:14.545Z,21.40
2018-08-03T01:00:50.047Z,21.40
2018-08-03T01:03:25.432Z,21.30
2018-08-03T01:06:00.796Z,21.30
2018-08-03T01:08:36.324Z,21.40
2018-08-03T01:11:11.741Z,21.30
2018-08-03T01:13:47.697Z,21.30
2018-08-03T01:16:23.116Z,21.30
2018-08-03T01:18:58.622Z,21.30
2018-08-03T01:21:34.241Z,21.30
2018-08-03T01:24:10.216Z,21.40
2018-08-03T01:26:45.585Z,21.30
2018-08-03T01:29:21.116Z,21.30
2018-08-03T01:31:56.409Z,21.30
2018-08-03T01:34:31.796Z,21.20
2018-08-03T01:37:07.199Z,21.20
2018-08-03T01:39:42.903Z,21.20
2018-08-03T01:42:18.354Z,21.20
2018-08-03T01:44:54.104Z,21.10
2018-08-03T01:47:29.471Z,21.10
2018-08-03T01:50:05.296Z,21.10
2018-08-03T01:52:40.883Z,21.10
2018-08-03T01:55:16.697Z,21.10
2018-08-03T01:57:52.326Z,21.10
2018-08-03T02:00:28.012Z,21.10
2018-08-03T02:03:03.367Z,21.10
2018-08-03T02:05:38.700Z,21.10
2018-08-03T02:08:14.054Z,21.10
2018-08-03T02:10:49.674Z,21.10
2018-08-03T02:13:25.040Z,21.10
2018-08-03T02:16:01.569Z,21.10
2018-08-03T02:18:36.919Z,21.10
2018-08-03T02:21:12.494Z,21.00
2018-08-03T02:23:47.939Z,21.00
2018-08-03T02:26:23.780Z,21.00
2018-08-03T02:29:00.000Z,21.00
2018-08-03T02:31:35.490Z,21.00
2018-08-03T02:34:11.006Z,21.00
2018-08-03T02:36:46.892Z,21.00
2018-08-03T02:39:22.352Z,21.00
2018-08-03T02:41:57.892Z,21.00
2018-08-03T02:44:33.549Z,21.00
2018-08-03T02:47:09.085Z,21.00
2018-08-03T02:49:44.454Z,21.00
2018-08-03T02:52:19.868Z,20.90
2018-08-03T02:54:55.185Z,20.90
2018-08-03T02:57:30.868Z,20.90
2018-08-03T03:00:06.280Z,20.90
2018-08-03T03:02:42.061Z,20.90
2018-08-03T03:05:17.547Z,20.90
2018-08-03T03:07:53.052Z,20.90
2018-08-03T03:10:28.196Z,20.90
2018-08-03T03:15:39.420Z,20.80
2018-08-03T03:18:14.838Z,20.80
2018-08-03T03:20:50.113Z,20.80
2018-08-03T03:23:25.720Z,20.80
2018-08-03T03:26:01.161Z,20.70
2018-08-03T03:28:36.604Z,20.80
2018-08-03T03:31:12.313Z,20.80
2018-08-03T03:36:23.092Z,20.70
2018-08-03T03:38:58.908Z,20.80
2018-08-03T03:41:34.331Z,20.70
2018-08-03T03:44:10.268Z,20.80
2018-08-03T03:46:45.589Z,20.80
2018-08-03T03:49:21.200Z,20.80
2018-08-03T03:51:56.636Z,20.80
2018-08-03T03:54:32.090Z,20.80
2018-08-03T03:57:07.574Z,20.90
2018-08-03T03:59:43.146Z,20.90
2018-08-03T04:02:21.299Z,20.90
2018-08-03T04:04:56.836Z,20.90
2018-08-03T04:07:32.090Z,21.00
2018-08-03T04:10:07.838Z,21.00
2018-08-03T04:12:43.265Z,21.10
2018-08-03T04:15:18.700Z,21.10
2018-08-03T04:17:53.997Z,21.20
2018-08-03T04:20:29.508Z,21.30
2018-08-03T04:23:04.725Z,21.30
2018-08-03T04:25:40.350Z,21.50
2018-08-03T04:28:15.748Z,21.50
2018-08-03T04:30:51.301Z,21.50
2018-08-03T04:33:26.564Z,21.60
2018-08-03T04:36:02.025Z,21.70
2018-08-03T04:38:37.464Z,21.70
2018-08-03T04:41:13.183Z,21.80
2018-08-03T04:43:48.681Z,21.90
2018-08-03T04:46:24.379Z,21.90
2018-08-03T04:48:59.916Z,22.00
2018-08-03T04:51:35.668Z,22.10
2018-08-03T04:54:10.995Z,22.20
2018-08-03T04:56:47.590Z,22.30
2018-08-03T04:59:22.992Z,22.40
2018-08-03T05:01:58.688Z,22.50
2018-08-03T05:04:34.214Z,22.50
2018-08-03T05:07:10.201Z,22.60
2018-08-03T05:09:45.752Z,22.70
2018-08-03T05:12:21.236Z,22.80
2018-08-03T05:14:57.324Z,22.90
2018-08-03T05:17:32.849Z,23.10
2018-08-03T05:20:09.361Z,24.60
2018-08-03T05:22:44.804Z,26.30
2018-08-03T05:27:55.427Z,28.60
2018-08-03T05:30:30.941Z,29.20
2018-08-03T05:33:06.640Z,29.70
2018-08-03T05:35:42.242Z,30.40
2018-08-03T05:38:17.637Z,30.90
2018-08-03T05:40:53.224Z,31.10
2018-08-03T05:43:28.673Z,31.20
2018-08-03T05:46:04.224Z,31.50
2018-08-03T05:48:39.798Z,32.30
2018-08-03T05:51:15.325Z,32.40
2018-08-03T05:53:51.669Z,31.70
2018-08-03T05:56:27.229Z,31.40
2018-08-03T05:59:02.399Z,31.80
2018-08-03T06:01:38.032Z,31.80
2018-08-03T06:04:13.220Z,32.20
2018-08-03T06:06:48.620Z,32.50
2018-08-03T06:09:23.809Z,32.60
2018-08-03T06:11:59.217Z,32.40
2018-08-03T06:14:34.632Z,32.10
2018-08-03T06:17:10.284Z,32.60
2018-08-03T06:19:45.644Z,32.70
2018-08-03T06:22:20.920Z,33.40
2018-08-03T06:24:57.159Z,32.70
2018-08-03T06:27:32.532Z,31.90
2018-08-03T06:32:48.133Z,31.90
2018-08-03T06:35:23.692Z,31.30
2018-08-03T06:37:59.042Z,30.60
2018-08-03T06:40:34.509Z,30.30
2018-08-03T06:43:10.117Z,30.70
2018-08-03T06:45:45.908Z,31.10
2018-08-03T06:48:21.300Z,32.30
2018-08-03T06:50:56.800Z,32.50
2018-08-03T06:53:32.216Z,33.10
2018-08-03T06:56:07.692Z,33.10
2018-08-03T06:58:43.080Z,33.20
2018-08-03T07:01:18.885Z,33.70
2018-08-03T07:03:54.376Z,33.30
2018-08-03T07:06:29.119Z,33.90
2018-08-03T07:09:07.578Z,34.70
2018-08-03T07:11:43.021Z,35.20
2018-08-03T07:14:18.953Z,35.00
2018-08-03T07:16:54.758Z,35.00
2018-08-03T07:19:30.237Z,34.30
2018-08-03T07:22:05.833Z,35.30
2018-08-03T07:24:41.041Z,35.40
2018-08-03T07:27:16.745Z,35.40
2018-08-03T07:29:52.172Z,34.80
2018-08-03T07:32:27.721Z,34.40
2018-08-03T07:35:03.210Z,34.90
2018-08-03T07:37:38.812Z,34.40
2018-08-03T07:40:14.454Z,33.50
2018-08-03T07:42:50.147Z,33.10
2018-08-03T07:45:26.589Z,33.20
2018-08-03T07:48:01.932Z,33.40
2018-08-03T07:50:37.478Z,33.30
2018-08-03T07:55:48.469Z,34.10
2018-08-03T07:58:23.776Z,34.00
2018-08-03T08:00:59.356Z,33.60
2018-08-03T08:03:34.697Z,33.80
2018-08-03T08:06:10.378Z,33.60
2018-08-03T08:08:45.823Z,33.50
2018-08-03T08:11:21.460Z,33.00
2018-08-03T08:13:56.624Z,32.30
2018-08-03T08:16:32.013Z,31.50
2018-08-03T08:19:07.284Z,31.10
2018-08-03T08:21:42.716Z,31.10
2018-08-03T08:24:18.167Z,31.10
2018-08-03T08:26:53.730Z,30.80
2018-08-03T08:29:28.459Z,30.90
2018-08-03T08:32:03.984Z,30.60
2018-08-03T08:34:39.367Z,30.60
2018-08-03T08:37:17.897Z,30.70
2018-08-03T08:39:53.613Z,30.70
2018-08-03T08:45:03.808Z,30.60
2018-08-03T08:47:39.520Z,30.70
2018-08-03T08:50:14.946Z,30.60
2018-08-03T08:52:50.730Z,30.60
2018-08-03T08:55:26.164Z,30.30
2018-08-03T08:58:01.812Z,30.30
2018-08-03T09:00:37.336Z,30.60
2018-08-03T09:03:13.121Z,30.90
2018-08-03T09:05:48.659Z,30.80
2018-08-03T09:08:24.312Z,31.00
2018-08-03T09:10:59.964Z,31.00
2018-08-03T09:13:35.476Z,31.00
2018-08-03T09:16:11.168Z,30.80
2018-08-03T09:18:46.713Z,30.90
2018-08-03T09:21:22.097Z,31.10
2018-08-03T09:23:57.431Z,31.10
2018-08-03T09:26:33.091Z,31.30
2018-08-03T09:29:08.524Z,31.30
2018-08-03T09:31:44.138Z,31.40
2018-08-03T09:34:19.604Z,31.20
2018-08-03T09:36:55.242Z,31.30
2018-08-03T09:39:30.798Z,31.10
2018-08-03T09:44:41.604Z,31.40
2018-08-03T09:47:17.220Z,31.50
2018-08-03T09:49:52.673Z,31.30
2018-08-03T09:52:28.216Z,31.10
2018-08-03T09:55:03.372Z,31.20
2018-08-03T09:57:38.765Z,31.40
2018-08-03T10:00:16.580Z,31.70
2018-08-03T10:02:52.140Z,31.90
2018-08-03T10:05:27.584Z,32.00
2018-08-03T10:08:03.243Z,32.10
2018-08-03T10:10:38.448Z,31.80
2018-08-03T10:13:14.339Z,32.00
2018-08-03T10:15:49.630Z,32.10
2018-08-03T10:18:25.226Z,31.90
2018-08-03T10:21:00.848Z,31.80
2018-08-03T10:23:36.425Z,31.80
2018-08-03T10:26:11.945Z,32.00
2018-08-03T10:28:47.519Z,31.90
2018-08-03T10:31:22.732Z,32.00
2018-08-03T10:33:58.246Z,32.30
2018-08-03T10:36:33.553Z,32.30
2018-08-03T10:39:10.769Z,32.50
2018-08-03T10:41:46.029Z,32.70
2018-08-03T10:44:21.829Z,32.70
2018-08-03T10:49:33.338Z,32.80
2018-08-03T10:52:08.833Z,32.90
2018-08-03T10:54:44.329Z,32.90
2018-08-03T10:57:19.716Z,32.90
2018-08-03T10:59:55.424Z,33.10
2018-08-03T11:02:30.721Z,33.20
2018-08-03T11:05:06.390Z,33.20
2018-08-03T11:07:41.683Z,33.00
2018-08-03T11:10:17.801Z,33.10
2018-08-03T11:12:53.656Z,32.90
2018-08-03T11:15:29.328Z,33.10
2018-08-03T11:18:04.524Z,33.20
2018-08-03T11:20:40.316Z,33.30
2018-08-03T11:23:15.788Z,33.40
2018-08-03T11:25:51.512Z,33.60
2018-08-03T11:28:27.173Z,33.80
2018-08-03T11:31:02.712Z,33.70
2018-08-03T11:33:38.152Z,33.90
2018-08-03T11:36:13.600Z,34.00
2018-08-03T11:38:48.938Z,34.20
2018-08-03T11:41:24.393Z,33.90
2018-08-03T11:43:59.972Z,34.10
2018-08-03T11:46:35.385Z,34.10
2018-08-03T11:49:10.898Z,34.00
2018-08-03T11:51:46.341Z,34.20
2018-08-03T11:54:21.647Z,34.20
2018-08-03T11:56:57.171Z,34.20
2018-08-03T11:59:32.632Z,33.90
2018-08-03T12:02:08.359Z,34.10
2018-08-03T12:04:43.613Z,34.20
2018-08-03T12:07:19.071Z,33.80
2018-08-03T12:09:55.103Z,33.90
2018-08-03T12:12:29.786Z,33.80
2018-08-03T12:15:05.338Z,34.00
2018-08-03T12:17:40.574Z,34.20
2018-08-03T12:20:15.961Z,33.70
2018-08-03T12:22:51.304Z,33.70
2018-08-03T12:25:26.867Z,34.00
2018-08-03T12:28:01.608Z,34.20
2018-08-03T12:30:36.436Z,34.20
2018-08-03T12:33:11.005Z,34.30
2018-08-03T12:35:45.991Z,34.00
2018-08-03T12:38:20.601Z,34.20
2018-08-03T12:40:55.549Z,34.00
2018-08-03T12:43:30.289Z,34.20
2018-08-03T12:46:05.486Z,34.40
2018-08-03T12:48:40.003Z,34.50
2018-08-03T12:51:14.878Z,34.30
2018-08-03T12:53:49.516Z,34.40
2018-08-03T12:56:24.640Z,34.20
2018-08-03T12:58:59.419Z,34.00
2018-08-03T13:01:34.245Z,34.00
2018-08-03T13:04:08.948Z,33.90
2018-08-03T13:06:43.619Z,34.10
2018-08-03T13:09:18.284Z,34.20
2018-08-03T13:11:53.225Z,33.90
2018-08-03T13:14:27.884Z,34.20
2018-08-03T13:17:02.986Z,34.30
2018-08-03T13:19:38.115Z,34.20
2018-08-03T13:22:22.891Z,34.10
2018-08-03T13:24:57.441Z,34.20
2018-08-03T13:27:32.366Z,34.40
2018-08-03T13:30:07.684Z,34.30
2018-08-03T13:32:43.373Z,34.30
2018-08-03T13:35:18.044Z,34.20
2018-08-03T13:37:52.998Z,34.20
2018-08-03T13:40:27.834Z,34.40
2018-08-03T13:43:02.471Z,34.30
2018-08-03T13:45:37.482Z,34.40
2018-08-03T13:48:12.124Z,34.70
2018-08-03T13:50:46.852Z,34.60
2018-08-03T13:53:21.604Z,34.70
2018-08-03T13:58:30.856Z,34.60
2018-08-03T14:01:17.043Z,34.30
2018-08-03T14:03:51.861Z,34.30
2018-08-03T14:06:26.680Z,34.20
2018-08-03T14:09:01.415Z,34.20
2018-08-03T14:11:36.349Z,34.50
2018-08-03T14:14:10.952Z,34.60
2018-08-03T14:16:45.916Z,34.60
2018-08-03T14:19:20.748Z,34.60
2018-08-03T14:21:55.591Z,34.80
2018-08-03T14:24:30.588Z,34.70
2018-08-03T14:27:05.956Z,34.70
2018-08-03T14:29:40.981Z,34.90
2018-08-03T14:32:15.572Z,34.80
2018-08-03T14:34:50.567Z,34.90
2018-08-03T14:37:25.106Z,34.90
2018-08-03T14:39:59.992Z,35.00
2018-08-03T14:42:34.536Z,34.40
2018-08-03T14:45:12.532Z,34.40
2018-08-03T14:47:47.456Z,34.10
2018-08-03T14:50:22.320Z,33.80
2018-08-03T14:52:56.965Z,33.70
2018-08-03T14:55:32.018Z,33.70
2018-08-03T14:58:06.740Z,33.30
2018-08-03T15:00:41.624Z,32.90
2018-08-03T15:03:16.300Z,32.90
2018-08-03T15:05:51.295Z,33.10
2018-08-03T15:08:25.991Z,33.40
2018-08-03T15:11:00.736Z,33.60
2018-08-03T15:13:35.672Z,33.80
2018-08-03T15:16:10.496Z,33.80
2018-08-03T15:18:45.029Z,33.90
2018-08-03T15:21:19.945Z,33.90
2018-08-03T15:23:54.637Z,33.80
2018-08-03T15:26:29.507Z,34.00
2018-08-03T15:29:04.155Z,34.00
2018-08-03T15:31:38.778Z,33.90
2018-08-03T15:34:13.493Z,33.80
2018-08-03T15:36:48.551Z,33.90
2018-08-03T15:39:23.181Z,33.90
2018-08-03T15:41:58.152Z,33.80
2018-08-03T15:47:07.853Z,33.40
2018-08-03T15:49:42.564Z,33.00
2018-08-03T15:52:17.498Z,32.90
2018-08-03T15:54:52.224Z,32.70
2018-08-03T16:00:00.368Z,32.50
2018-08-03T16:02:35.624Z,32.40
2018-08-03T16:05:10.637Z,32.40
2018-08-03T16:07:45.686Z,32.40
2018-08-03T16:10:20.515Z,32.40
2018-08-03T16:12:55.082Z,32.20
2018-08-03T16:15:29.896Z,32.10
2018-08-03T16:18:04.592Z,31.90
2018-08-03T16:20:39.356Z,31.90
2018-08-03T16:23:14.092Z,31.80
2018-08-03T16:25:48.989Z,31.80
2018-08-03T16:28:23.740Z,31.70
2018-08-03T16:30:58.847Z,31.50
2018-08-03T16:33:33.523Z,31.40
2018-08-03T16:36:08.616Z,31.30
2018-08-03T16:38:43.199Z,31.40
2018-08-03T16:41:18.125Z,31.20
2018-08-03T16:43:52.960Z,31.20
2018-08-03T16:46:27.939Z,31.20
2018-08-03T16:49:02.728Z,31.10
2018-08-03T16:51:37.532Z,31.00
2018-08-03T16:54:12.198Z,31.00
2018-08-03T16:56:47.160Z,31.00
2018-08-03T16:59:21.693Z,31.00
2018-08-03T17:01:56.529Z,30.90
2018-08-03T17:04:31.249Z,30.80
2018-08-03T17:07:06.224Z,30.70
2018-08-03T17:09:40.786Z,30.60
2018-08-03T17:12:15.736Z,30.50
2018-08-03T17:14:50.848Z,30.40
2018-08-03T17:17:25.731Z,30.30
2018-08-03T17:22:35.276Z,30.20
2018-08-03T17:25:09.904Z,30.10
2018-08-03T17:27:44.774Z,30.00
2018-08-03T17:30:19.431Z,30.00
2018-08-03T17:32:54.275Z,29.90
2018-08-03T17:35:28.964Z,29.80
2018-08-03T17:38:03.841Z,29.80
2018-08-03T17:40:38.589Z,29.70
2018-08-03T17:43:13.397Z,29.60
2018-08-03T17:48:24.268Z,29.50
2018-08-03T17:50:59.616Z,29.40
2018-08-03T17:53:35.266Z,29.30
2018-08-03T17:56:10.878Z,29.30
2018-08-03T17:58:46.682Z,29.20
2018-08-03T18:01:22.125Z,29.10
2018-08-03T18:03:57.549Z,29.00
2018-08-03T18:09:08.344Z,28.90
2018-08-03T18:11:43.658Z,28.80
2018-08-03T18:14:19.337Z,28.80
2018-08-03T18:16:54.837Z,28.70
2018-08-03T18:19:30.342Z,28.60
2018-08-03T18:22:05.609Z,28.60
2018-08-03T18:24:41.117Z,28.50
2018-08-03T18:27:16.396Z,28.40
2018-08-03T18:29:52.073Z,28.30
2018-08-03T18:32:27.409Z,28.20
2018-08-03T18:35:03.029Z,28.20
2018-08-03T18:37:38.718Z,28.10
2018-08-03T18:40:13.507Z,28.10
2018-08-03T18:42:48.172Z,28.00
2018-08-03T18:45:23.587Z,27.90
2018-08-03T18:47:58.836Z,27.80
2018-08-03T18:50:33.656Z,27.70
2018-08-03T18:53:08.324Z,27.60
2018-08-03T18:55:43.254Z,27.50
2018-08-03T18:58:17.920Z,27.40
2018-08-03T19:00:52.969Z,27.40
2018-08-03T19:03:28.416Z,27.20
2018-08-03T19:06:04.169Z,27.20
2018-08-03T19:08:40.185Z,27.10
2018-08-03T19:11:15.640Z,26.90
2018-08-03T19:13:51.368Z,26.80
2018-08-03T19:16:26.828Z,26.80
2018-08-03T19:19:02.528Z,26.70
2018-08-03T19:21:38.076Z,26.70
2018-08-03T19:24:13.572Z,26.60
2018-08-03T19:26:48.962Z,26.50
2018-08-03T19:29:24.746Z,26.50
2018-08-03T19:32:00.604Z,26.40
2018-08-03T19:34:36.014Z,26.40
2018-08-03T19:37:11.606Z,26.30
2018-08-03T19:39:47.009Z,26.20
2018-08-03T19:42:22.532Z,26.20
2018-08-03T19:44:58.237Z,26.00
2018-08-03T19:47:33.932Z,26.00
2018-08-03T19:50:10.716Z,25.90
2018-08-03T19:52:46.193Z,25.70
2018-08-03T19:55:21.594Z,25.60
2018-08-03T19:57:57.316Z,25.60
2018-08-03T20:03:08.052Z,25.40
2018-08-03T20:05:43.388Z,25.40
2018-08-03T20:10:54.185Z,25.30
2018-08-03T20:16:05.168Z,25.10
2018-08-03T20:18:40.700Z,25.10
2018-08-03T20:21:16.080Z,25.00
2018-08-03T20:23:51.562Z,24.90
2018-08-03T20:26:26.868Z,24.90
2018-08-03T20:29:02.240Z,24.80
2018-08-03T20:31:37.688Z,24.80
2018-08-03T20:34:13.284Z,24.70
2018-08-03T20:36:48.804Z,24.70
2018-08-03T20:39:24.576Z,24.60
2018-08-03T20:42:00.039Z,24.60
2018-08-03T20:44:36.122Z,24.60
2018-08-03T20:47:11.743Z,24.50
2018-08-03T20:52:22.620Z,24.50
2018-08-03T20:54:58.182Z,24.50
2018-08-03T20:57:33.847Z,24.50
2018-08-03T21:00:09.350Z,24.40
2018-08-03T21:02:45.118Z,24.40
2018-08-03T21:05:20.596Z,24.40
2018-08-03T21:07:56.212Z,24.20
2018-08-03T21:10:38.066Z,24.20
2018-08-03T21:13:13.763Z,24.10
2018-08-03T21:15:49.076Z,24.00
2018-08-03T21:18:24.444Z,23.90
2018-08-03T21:20:59.888Z,23.90
2018-08-03T21:23:35.541Z,23.90
2018-08-03T21:26:10.902Z,23.80
2018-08-03T21:28:46.437Z,23.80
2018-08-03T21:31:21.924Z,23.80
2018-08-03T21:33:57.624Z,23.70
2018-08-03T21:39:10.569Z,23.60
2018-08-03T21:41:45.948Z,23.70
2018-08-03T21:44:21.748Z,23.60
2018-08-03T21:46:56.983Z,23.50
2018-08-03T21:49:31.872Z,23.40
2018-08-03T21:52:07.300Z,23.40
2018-08-03T21:54:42.726Z,23.30
2018-08-03T21:57:18.164Z,23.30
2018-08-03T21:59:53.745Z,23.20
2018-08-03T22:05:04.513Z,23.10
2018-08-03T22:07:39.918Z,23.00
2018-08-03T22:10:15.300Z,23.00
2018-08-03T22:12:50.701Z,22.90
2018-08-03T22:15:26.081Z,22.80
2018-08-03T22:18:01.512Z,22.80
2018-08-03T22:20:37.488Z,22.70
2018-08-03T22:23:12.934Z,22.70
2018-08-03T22:25:48.586Z,22.70
2018-08-03T22:28:24.045Z,22.70
2018-08-03T22:30:59.796Z,22.60
2018-08-03T22:33:35.128Z,22.60
2018-08-03T22:36:10.673Z,22.60
2018-08-03T22:38:46.109Z,22.60
2018-08-03T22:41:21.600Z,22.60
2018-08-03T22:43:57.006Z,22.50
2018-08-03T22:46:33.060Z,22.50
2018-08-03T22:49:08.373Z,22.40
2018-08-03T22:51:44.083Z,22.40
2018-08-03T22:54:19.528Z,22.30
2018-08-03T22:56:54.921Z,22.30
2018-08-03T22:59:30.443Z,22.20
2018-08-03T23:02:08.097Z,22.20
2018-08-03T23:04:43.419Z,22.10
2018-08-03T23:07:18.987Z,22.10
2018-08-03T23:09:54.460Z,22.00
2018-08-03T23:12:29.879Z,22.00
2018-08-03T23:15:05.661Z,22.00
2018-08-03T23:17:41.158Z,21.90
2018-08-03T23:20:16.712Z,21.90
2018-08-03T23:22:52.264Z,21.80
2018-08-03T23:25:27.564Z,21.70
2018-08-03T23:28:03.257Z,21.70
2018-08-03T23:30:38.439Z,21.70
2018-08-03T23:33:14.169Z,21.60
2018-08-03T23:35:49.467Z,21.60
2018-08-03T23:38:25.042Z,21.60
2018-08-03T23:41:00.217Z,21.50
2018-08-03T23:43:35.829Z,21.50
2018-08-03T23:46:11.172Z,21.40
2018-08-03T23:48:46.631Z,21.30
2018-08-03T23:51:22.744Z,21.30
2018-08-03T23:53:58.321Z,21.30
2018-08-03T23:56:33.496Z,21.20
2018-08-03T23:59:09.008Z,21.30
